createdAt,value
2023-04-04T00:00:35.911Z,60.05
2023-04-04T00:03:02.924Z,59.80
2023-04-04T00:05:29.871Z,60.15
2023-04-04T00:07:56.697Z,60.47
2023-04-04T00:10:23.588Z,60.54
2023-04-04T00:12:50.307Z,60.89
2023-04-04T00:15:19.358Z,61.14
2023-04-04T00:17:46.100Z,60.84
2023-04-04T00:20:15.238Z,61.32
2023-04-04T00:22:42.406Z,61.00
2023-04-04T00:28:50.634Z,60.45
2023-04-04T00:31:18.091Z,60.43
2023-04-04T00:33:44.697Z,61.01
2023-04-04T00:36:11.705Z,61.09
2023-04-04T00:38:38.381Z,60.96
2023-04-04T00:41:07.684Z,61.18
2023-04-04T00:43:35.408Z,61.34
2023-04-04T00:46:02.414Z,61.33
2023-04-04T00:48:29.880Z,61.05
2023-04-04T00:50:56.984Z,60.92
2023-04-04T00:53:23.752Z,61.31
2023-04-04T00:55:50.639Z,61.22
2023-04-04T00:58:19.905Z,61.07
2023-04-04T01:00:47.031Z,61.03
2023-04-04T01:03:14.391Z,61.24
2023-04-04T01:05:41.942Z,61.40
2023-04-04T01:08:08.801Z,61.44
2023-04-04T01:10:35.791Z,62.00
2023-04-04T01:13:04.878Z,62.43
2023-04-04T01:15:31.628Z,62.54
2023-04-04T01:18:02.406Z,62.43
2023-04-04T01:20:32.951Z,62.36
2023-04-04T01:23:01.999Z,62.56
2023-04-04T01:25:34.887Z,62.43
2023-04-04T01:28:01.738Z,62.13
2023-04-04T01:30:35.010Z,62.00
2023-04-04T01:33:11.000Z,62.32
2023-04-04T01:35:51.738Z,62.51
2023-04-04T01:38:58.655Z,61.86
2023-04-04T01:41:26.323Z,62.15
2023-04-04T01:43:56.196Z,62.46
2023-04-04T01:46:25.620Z,62.03
2023-04-04T01:48:55.294Z,62.18
2023-04-04T01:51:24.722Z,62.95
2023-04-04T01:53:51.394Z,62.78
2023-04-04T01:56:18.532Z,62.34
2023-04-04T01:58:45.229Z,62.65
2023-04-04T02:01:11.929Z,62.63
2023-04-04T02:03:38.676Z,62.47
2023-04-04T02:06:05.942Z,62.33
2023-04-04T02:08:32.541Z,62.08
2023-04-04T02:10:59.397Z,62.42
2023-04-04T02:13:26.177Z,62.74
2023-04-04T02:15:56.116Z,62.89
2023-04-04T02:18:26.060Z,62.50
2023-04-04T02:20:57.659Z,62.42
2023-04-04T02:23:24.657Z,63.15
2023-04-04T02:25:52.010Z,62.96
2023-04-04T02:28:19.326Z,63.40
2023-04-04T02:30:46.175Z,63.67
2023-04-04T02:33:12.980Z,63.17
2023-04-04T02:35:39.742Z,63.29
2023-04-04T02:38:06.721Z,63.33
2023-04-04T02:40:33.293Z,63.44
2023-04-04T02:42:59.955Z,63.50
2023-04-04T02:45:26.754Z,63.49
2023-04-04T02:47:53.551Z,63.66
2023-04-04T02:50:20.312Z,63.58
2023-04-04T02:52:47.051Z,63.67
2023-04-04T02:55:13.821Z,64.04
2023-04-04T02:57:40.770Z,63.77
2023-04-04T03:00:08.237Z,63.67
2023-04-04T03:02:35.205Z,63.95
2023-04-04T03:05:07.084Z,63.93
2023-04-04T03:07:38.409Z,64.17
2023-04-04T03:10:07.695Z,63.87
2023-04-04T03:12:34.428Z,64.25
2023-04-04T03:15:04.743Z,63.97
2023-04-04T03:17:31.922Z,64.12
2023-04-04T03:19:58.626Z,64.01
2023-04-04T03:22:25.371Z,64.34
2023-04-04T03:24:54.448Z,64.70
2023-04-04T03:27:23.253Z,64.36
2023-04-04T03:29:53.012Z,64.70
2023-04-04T03:32:19.640Z,64.21
2023-04-04T03:34:48.599Z,64.64
2023-04-04T03:37:15.179Z,64.74
2023-04-04T03:39:44.061Z,64.67
2023-04-04T03:42:11.110Z,64.92
2023-04-04T03:44:41.784Z,65.13
2023-04-04T03:47:08.645Z,65.20
2023-04-04T03:49:35.367Z,65.42
2023-04-04T03:52:04.973Z,65.38
2023-04-04T03:54:31.584Z,65.42
2023-04-04T03:56:58.520Z,65.44
2023-04-04T03:59:25.608Z,65.67
2023-04-04T04:01:52.672Z,65.42
2023-04-04T04:04:19.424Z,65.65
2023-04-04T04:06:49.034Z,65.30
2023-04-04T04:09:16.071Z,65.40
2023-04-04T04:11:43.056Z,65.56
2023-04-04T04:14:09.649Z,66.07
2023-04-04T04:16:40.299Z,65.84
2023-04-04T04:19:07.100Z,65.78
2023-04-04T04:21:33.774Z,65.97
2023-04-04T04:24:00.491Z,66.31
2023-04-04T04:26:27.343Z,66.85
2023-04-04T04:28:54.240Z,66.29
2023-04-04T04:31:23.377Z,66.63
2023-04-04T04:33:52.673Z,66.11
2023-04-04T04:36:19.408Z,66.44
2023-04-04T04:38:50.916Z,66.66
2023-04-04T04:41:17.667Z,66.31
2023-04-04T04:43:44.368Z,66.49
2023-04-04T04:46:11.331Z,66.98
2023-04-04T04:48:37.996Z,67.02
2023-04-04T04:51:06.892Z,66.67
2023-04-04T04:53:33.665Z,66.55
2023-04-04T04:56:00.398Z,66.82
2023-04-04T04:58:28.630Z,66.83
2023-04-04T05:00:59.673Z,66.89
2023-04-04T05:03:26.526Z,67.11
2023-04-04T05:05:53.483Z,67.25
2023-04-04T05:08:20.166Z,67.09
2023-04-04T05:10:49.042Z,67.02
2023-04-04T05:13:15.704Z,67.76
2023-04-04T05:15:48.761Z,67.28
2023-04-04T05:18:25.030Z,67.93
2023-04-04T05:20:56.563Z,67.46
2023-04-04T05:23:26.555Z,67.92
2023-04-04T05:25:55.844Z,67.67
2023-04-04T05:28:23.782Z,67.63
2023-04-04T05:30:50.518Z,67.97
2023-04-04T05:33:17.369Z,67.57
2023-04-04T05:35:51.989Z,67.35
2023-04-04T05:38:23.265Z,67.38
2023-04-04T05:40:49.928Z,67.23
2023-04-04T05:43:17.969Z,67.87
2023-04-04T05:45:44.853Z,67.23
2023-04-04T05:48:11.943Z,67.19
2023-04-04T05:50:42.344Z,67.44
2023-04-04T05:53:13.045Z,67.26
2023-04-04T05:55:39.774Z,66.98
2023-04-04T05:58:07.341Z,66.59
2023-04-04T06:00:35.466Z,65.54
2023-04-04T06:03:04.445Z,61.50
2023-04-04T06:05:32.060Z,63.12
2023-04-04T06:08:02.118Z,63.04
2023-04-04T06:10:43.455Z,58.89
2023-04-04T06:13:19.503Z,53.76
2023-04-04T06:16:03.076Z,52.08
2023-04-04T06:18:38.712Z,56.37
2023-04-04T06:21:11.342Z,60.44
2023-04-04T06:23:47.255Z,61.75
2023-04-04T06:26:17.024Z,62.90
2023-04-04T06:28:52.021Z,64.02
2023-04-04T06:31:18.934Z,64.44
2023-04-04T06:33:48.976Z,64.65
2023-04-04T06:36:16.500Z,64.78
2023-04-04T06:38:43.346Z,64.58
2023-04-04T06:41:12.476Z,63.67
2023-04-04T06:43:41.812Z,63.00
2023-04-04T06:46:09.427Z,60.38
2023-04-04T06:48:36.671Z,58.81
2023-04-04T06:51:09.128Z,54.29
2023-04-04T06:53:36.875Z,51.31
2023-04-04T06:56:06.232Z,48.44
2023-04-04T06:58:35.869Z,47.68
2023-04-04T07:01:02.639Z,48.51
2023-04-04T07:03:30.169Z,48.01
2023-04-04T07:05:57.219Z,46.48
2023-04-04T07:08:24.308Z,46.93
2023-04-04T07:10:51.610Z,44.18
2023-04-04T07:13:20.616Z,43.08
2023-04-04T07:15:50.682Z,41.19
2023-04-04T07:18:19.587Z,42.24
2023-04-04T07:20:54.528Z,41.90
2023-04-04T07:23:21.272Z,40.91
2023-04-04T07:25:50.356Z,40.65
2023-04-04T07:28:17.343Z,39.67
2023-04-04T07:30:46.176Z,40.11
2023-04-04T07:33:13.447Z,41.03
2023-04-04T07:35:43.002Z,41.06
2023-04-04T07:38:10.342Z,40.01
2023-04-04T07:40:39.670Z,39.92
2023-04-04T07:43:06.780Z,38.60
2023-04-04T07:45:38.663Z,38.69
2023-04-04T07:48:05.686Z,38.03
2023-04-04T07:50:32.369Z,36.20
2023-04-04T07:53:03.902Z,36.75
2023-04-04T07:55:30.600Z,37.64
2023-04-04T07:57:58.478Z,36.30
2023-04-04T08:00:26.596Z,35.35
2023-04-04T08:02:54.545Z,34.37
2023-04-04T08:05:21.667Z,34.79
2023-04-04T08:07:50.532Z,34.66
2023-04-04T08:10:17.905Z,34.87
2023-04-04T08:12:45.258Z,33.27
2023-04-04T08:15:12.314Z,32.91
2023-04-04T08:17:39.265Z,33.26
2023-04-04T08:20:06.522Z,32.66
2023-04-04T08:22:33.815Z,33.16
2023-04-04T08:25:00.872Z,31.86
2023-04-04T08:27:29.962Z,31.38
2023-04-04T08:29:58.787Z,32.00
2023-04-04T08:32:25.376Z,31.73
2023-04-04T08:34:52.158Z,31.88
2023-04-04T08:37:21.257Z,31.09
2023-04-04T08:39:47.866Z,30.29
2023-04-04T08:42:17.624Z,31.35
2023-04-04T08:44:50.820Z,31.54
2023-04-04T08:47:21.442Z,30.72
2023-04-04T08:49:49.783Z,29.92
2023-04-04T08:52:21.870Z,30.38
2023-04-04T08:54:52.676Z,31.18
2023-04-04T08:57:22.289Z,30.87
2023-04-04T08:59:49.346Z,31.65
2023-04-04T09:02:38.548Z,32.79
2023-04-04T09:05:08.796Z,32.04
2023-04-04T09:07:38.538Z,32.65
2023-04-04T09:10:09.378Z,32.42
2023-04-04T09:12:39.493Z,33.45
2023-04-04T09:15:09.993Z,33.72
2023-04-04T09:17:37.558Z,34.98
2023-04-04T09:20:24.521Z,35.31
2023-04-04T09:22:51.512Z,35.48
2023-04-04T09:25:18.694Z,35.37
2023-04-04T09:27:45.791Z,35.60
2023-04-04T09:30:12.510Z,36.38
2023-04-04T09:32:39.153Z,36.64
2023-04-04T09:35:06.463Z,36.83
2023-04-04T09:37:33.453Z,36.96
2023-04-04T09:40:01.546Z,36.46
2023-04-04T09:45:13.238Z,37.42
2023-04-04T09:47:49.709Z,37.38
2023-04-04T09:50:23.597Z,37.80
2023-04-04T09:52:50.972Z,38.60
2023-04-04T09:55:20.045Z,38.67
2023-04-04T09:57:47.562Z,37.96
2023-04-04T10:00:23.177Z,38.18
2023-04-04T10:02:53.317Z,38.35
2023-04-04T10:05:20.747Z,38.95
2023-04-04T10:07:49.015Z,38.99
2023-04-04T10:10:18.243Z,39.50
2023-04-04T10:12:48.171Z,39.45
2023-04-04T10:15:16.451Z,39.05
2023-04-04T10:17:44.279Z,39.37
2023-04-04T10:20:11.485Z,39.71
2023-04-04T10:22:38.911Z,39.76
2023-04-04T10:25:07.302Z,39.27
2023-04-04T10:27:34.478Z,40.15
2023-04-04T10:30:01.721Z,39.19
2023-04-04T10:32:51.621Z,40.19
2023-04-04T10:35:22.772Z,39.74
2023-04-04T10:38:02.024Z,39.78
2023-04-04T10:40:39.020Z,39.74
2023-04-04T10:43:09.747Z,40.14
2023-04-04T10:45:40.235Z,40.31
2023-04-04T10:48:10.514Z,40.08
2023-04-04T10:50:39.393Z,40.49
2023-04-04T10:53:07.577Z,40.21
2023-04-04T10:55:35.590Z,39.83
2023-04-04T10:58:04.924Z,39.95
2023-04-04T11:00:31.624Z,39.44
2023-04-04T11:03:02.055Z,39.63
2023-04-04T11:05:47.483Z,39.04
2023-04-04T11:08:25.409Z,39.01
2023-04-04T11:10:53.998Z,39.39
2023-04-04T11:13:26.224Z,38.41
2023-04-04T11:16:08.158Z,38.72
2023-04-04T11:18:41.778Z,38.95
2023-04-04T11:21:19.932Z,38.24
2023-04-04T11:23:49.847Z,38.11
2023-04-04T11:26:37.508Z,39.01
2023-04-04T11:29:05.392Z,38.28
2023-04-04T11:31:40.739Z,37.89
2023-04-04T11:34:14.113Z,38.49
2023-04-04T11:36:41.493Z,38.80
2023-04-04T11:39:10.982Z,38.44
2023-04-04T11:41:52.770Z,38.14
2023-04-04T11:44:22.470Z,37.81
2023-04-04T11:46:54.787Z,37.61
2023-04-04T11:49:27.570Z,37.31
2023-04-04T11:51:54.437Z,37.32
2023-04-04T11:54:21.147Z,37.96
2023-04-04T11:56:48.213Z,38.17
2023-04-04T11:59:20.072Z,38.07
2023-04-04T13:31:29.569Z,35.82
2023-04-04T13:33:56.130Z,36.66
2023-04-04T13:36:22.701Z,37.07
2023-04-04T13:38:49.404Z,37.63
2023-04-04T13:41:16.034Z,36.98
2023-04-04T13:43:42.587Z,37.66
2023-04-04T13:46:09.590Z,37.27
2023-04-04T13:48:36.248Z,37.10
2023-04-04T13:51:02.858Z,36.84
2023-04-04T13:53:34.004Z,36.82
2023-04-04T13:56:17.964Z,37.13
2023-04-04T13:58:48.273Z,36.35
2023-04-04T14:01:17.465Z,37.06
2023-04-04T14:03:44.180Z,36.83
2023-04-04T14:06:12.969Z,37.31
2023-04-04T14:08:41.849Z,37.18
2023-04-04T14:11:08.501Z,37.47
2023-04-04T14:13:36.406Z,37.39
2023-04-04T14:16:03.316Z,37.37
2023-04-04T14:18:29.924Z,37.45
2023-04-04T14:20:56.868Z,37.54
2023-04-04T14:23:25.910Z,36.77
2023-04-04T14:25:52.725Z,37.31
2023-04-04T14:28:24.727Z,36.98
2023-04-04T14:30:51.635Z,37.47
2023-04-04T14:33:18.420Z,38.22
2023-04-04T14:35:45.095Z,37.53
2023-04-04T14:38:13.910Z,37.35
2023-04-04T14:40:45.361Z,37.38
2023-04-04T14:43:11.985Z,37.71
2023-04-04T14:45:38.890Z,37.75
2023-04-04T14:48:05.846Z,37.48
2023-04-04T14:50:32.412Z,37.57
2023-04-04T14:52:59.055Z,37.60
2023-04-04T14:55:28.090Z,37.60
2023-04-04T14:58:01.960Z,37.17
2023-04-04T15:00:29.828Z,37.52
2023-04-04T15:02:56.575Z,37.73
2023-04-04T15:05:24.954Z,37.75
2023-04-04T15:07:51.554Z,37.71
2023-04-04T15:10:18.188Z,37.63
2023-04-04T15:12:44.795Z,38.18
2023-04-04T15:15:13.240Z,37.69
2023-04-04T15:17:44.902Z,38.01
2023-04-04T15:20:12.067Z,38.20
2023-04-04T15:22:39.857Z,37.90
2023-04-04T15:25:08.414Z,37.94
2023-04-04T15:27:35.433Z,37.77
2023-04-04T15:30:02.144Z,37.86
2023-04-04T15:32:28.836Z,37.83
2023-04-04T15:34:58.523Z,37.73
2023-04-04T15:37:25.996Z,38.14
2023-04-04T15:39:53.880Z,37.33
2023-04-04T15:42:21.340Z,37.71
2023-04-04T15:44:47.980Z,37.70
2023-04-04T15:47:16.796Z,38.18
2023-04-04T15:49:43.512Z,38.24
2023-04-04T15:52:12.418Z,38.31
2023-04-04T15:54:41.529Z,38.55
2023-04-04T15:57:08.228Z,38.50
2023-04-04T15:59:34.952Z,38.86
2023-04-04T16:02:04.761Z,38.70
2023-04-04T16:04:31.335Z,38.82
2023-04-04T16:06:57.890Z,38.68
2023-04-04T16:09:24.889Z,39.11
2023-04-04T16:11:51.757Z,39.24
2023-04-04T16:14:18.493Z,38.75
2023-04-04T16:16:45.095Z,38.99
2023-04-04T16:21:41.855Z,38.74
2023-04-04T16:24:08.906Z,38.87
2023-04-04T16:26:35.880Z,39.42
2023-04-04T16:29:05.818Z,38.76
2023-04-04T16:31:34.971Z,38.71
2023-04-04T16:34:03.902Z,38.42
2023-04-04T16:36:31.044Z,38.68
2023-04-04T16:39:02.615Z,38.65
2023-04-04T16:41:29.347Z,38.98
2023-04-04T16:43:56.014Z,38.89
2023-04-04T16:46:22.623Z,39.08
2023-04-04T16:48:51.686Z,39.48
2023-04-04T16:51:18.278Z,39.12
2023-04-04T16:53:47.084Z,39.53
2023-04-04T16:56:13.653Z,39.41
2023-04-04T16:58:40.571Z,39.44
2023-04-04T17:01:12.321Z,39.20
2023-04-04T17:03:38.946Z,39.41
2023-04-04T17:06:06.643Z,39.56
2023-04-04T17:08:33.246Z,39.54
2023-04-04T17:10:59.967Z,39.27
2023-04-04T17:13:29.294Z,39.64
2023-04-04T17:16:01.043Z,39.39
2023-04-04T17:18:27.705Z,39.82
2023-04-04T17:20:54.322Z,39.39
2023-04-04T17:23:20.966Z,39.82
2023-04-04T17:25:47.556Z,40.31
2023-04-04T17:28:14.099Z,40.81
2023-04-04T17:30:41.501Z,41.09
2023-04-04T17:33:23.668Z,40.65
2023-04-04T17:35:50.377Z,41.03
2023-04-04T17:38:16.907Z,40.96
2023-04-04T17:40:46.634Z,41.17
2023-04-04T17:43:13.257Z,41.18
2023-04-04T17:45:39.818Z,41.61
2023-04-04T17:48:06.665Z,41.51
2023-04-04T17:50:33.215Z,42.16
2023-04-04T17:53:02.169Z,42.08
2023-04-04T17:55:29.191Z,41.97
2023-04-04T17:57:57.194Z,42.00
2023-04-04T18:00:24.138Z,42.02
2023-04-04T18:02:50.851Z,42.14
2023-04-04T18:05:17.995Z,42.49
2023-04-04T18:07:44.651Z,42.64
2023-04-04T18:10:11.543Z,42.63
2023-04-04T18:12:39.204Z,42.88
2023-04-04T18:15:08.582Z,43.12
2023-04-04T18:17:35.351Z,42.89
2023-04-04T18:20:05.520Z,42.83
2023-04-04T18:22:33.396Z,43.08
2023-04-04T18:25:02.567Z,43.01
2023-04-04T18:27:29.129Z,43.30
2023-04-04T18:29:55.771Z,43.60
2023-04-04T18:32:26.417Z,43.73
2023-04-04T18:34:55.817Z,43.67
2023-04-04T18:37:22.406Z,44.28
2023-04-04T18:39:49.000Z,44.23
2023-04-04T18:42:15.687Z,44.00
2023-04-04T18:44:42.323Z,44.44
2023-04-04T18:47:09.121Z,44.58
2023-04-04T18:49:36.439Z,44.60
2023-04-04T18:52:03.156Z,45.29
2023-04-04T18:54:30.318Z,45.27
2023-04-04T18:57:00.711Z,45.17
2023-04-04T18:59:27.398Z,45.55
2023-04-04T19:01:54.278Z,45.57
2023-04-04T19:04:24.163Z,45.30
2023-04-04T19:06:53.978Z,45.45
2023-04-04T19:09:21.266Z,45.52
2023-04-04T19:11:52.727Z,45.97
2023-04-04T19:14:19.592Z,45.98
2023-04-04T19:16:48.444Z,45.56
2023-04-04T19:19:15.024Z,45.92
2023-04-04T19:21:42.289Z,46.07
2023-04-04T19:24:08.940Z,46.48
2023-04-04T19:26:35.544Z,46.45
2023-04-04T19:29:04.347Z,46.35
2023-04-04T19:31:36.034Z,46.71
2023-04-04T19:34:03.790Z,47.09
2023-04-04T19:36:35.906Z,47.35
2023-04-04T19:39:02.648Z,47.37
2023-04-04T19:41:36.614Z,47.47
2023-04-04T19:44:04.276Z,47.64
2023-04-04T19:46:34.785Z,48.07
2023-04-04T19:49:03.794Z,47.83
2023-04-04T19:51:38.620Z,48.19
2023-04-04T19:54:09.325Z,48.08
2023-04-04T19:56:36.326Z,48.45
2023-04-04T19:59:06.205Z,48.59
2023-04-04T20:01:34.914Z,48.64
2023-04-04T20:04:09.638Z,49.21
2023-04-04T20:06:38.362Z,49.48
2023-04-04T20:09:13.148Z,49.12
2023-04-04T20:11:39.909Z,48.99
2023-04-04T20:14:08.337Z,49.40
2023-04-04T20:16:35.806Z,51.00
2023-04-04T20:19:12.439Z,51.03
2023-04-04T20:21:41.840Z,50.67
2023-04-04T20:24:09.368Z,51.40
2023-04-04T20:26:38.832Z,51.18
2023-04-04T20:29:16.056Z,54.04
2023-04-04T20:31:52.576Z,53.00
2023-04-04T20:34:33.496Z,52.59
2023-04-04T20:37:03.416Z,52.68
2023-04-04T20:39:46.799Z,52.38
2023-04-04T20:42:31.260Z,52.24
2023-04-04T20:45:01.059Z,52.42
2023-04-04T20:47:51.130Z,52.28
2023-04-04T20:50:17.965Z,52.55
2023-04-04T20:52:59.931Z,52.80
2023-04-04T20:55:30.731Z,53.00
2023-04-04T20:58:06.141Z,53.17
2023-04-04T21:00:33.656Z,53.27
2023-04-04T21:03:02.539Z,53.58
2023-04-04T21:05:34.161Z,53.52
2023-04-04T21:08:04.621Z,53.00
2023-04-04T21:10:37.298Z,52.89
2023-04-04T21:13:05.651Z,52.77
2023-04-04T21:15:38.779Z,52.56
2023-04-04T21:18:12.151Z,52.40
2023-04-04T21:20:48.018Z,52.43
2023-04-04T21:23:30.711Z,52.33
2023-04-04T21:26:02.653Z,52.63
2023-04-04T21:28:38.859Z,52.80
2023-04-04T21:31:16.235Z,52.91
2023-04-04T21:33:47.903Z,53.15
2023-04-04T21:36:23.832Z,53.23
2023-04-04T21:38:52.407Z,53.41
2023-04-04T21:41:32.642Z,53.25
2023-04-04T21:44:01.977Z,53.90
2023-04-04T21:46:33.396Z,54.00
2023-04-04T21:49:02.862Z,54.12
2023-04-04T21:51:29.678Z,54.53
2023-04-04T21:53:57.032Z,54.93
2023-04-04T21:56:27.565Z,55.29
2023-04-04T21:58:57.276Z,55.78
2023-04-04T22:01:27.262Z,56.38
2023-04-04T22:03:56.396Z,56.16
2023-04-04T22:06:25.401Z,56.63
2023-04-04T22:08:54.570Z,56.92
2023-04-04T22:11:21.177Z,57.15
2023-04-04T22:13:49.252Z,57.27
2023-04-04T22:16:19.720Z,57.43
2023-04-04T22:18:48.226Z,57.45
2023-04-04T22:21:16.243Z,57.69
2023-04-04T22:23:43.012Z,58.07
2023-04-04T22:26:13.956Z,57.90
2023-04-04T22:28:42.171Z,58.35
2023-04-04T22:31:09.383Z,58.63
2023-04-04T22:33:35.951Z,59.12
2023-04-04T22:36:03.584Z,59.03
2023-04-04T22:38:30.376Z,59.45
2023-04-04T22:41:00.186Z,59.60
2023-04-04T22:43:29.173Z,60.42
2023-04-04T22:45:56.018Z,60.26
2023-04-04T22:48:25.538Z,60.38
2023-04-04T22:50:55.810Z,60.53
2023-04-04T22:53:26.701Z,60.74
2023-04-04T22:55:59.856Z,60.96
2023-04-04T22:58:26.723Z,60.58
2023-04-04T23:00:56.061Z,61.49
2023-04-04T23:03:22.843Z,61.00
2023-04-04T23:05:55.456Z,62.04
2023-04-04T23:08:24.499Z,61.82
2023-04-04T23:10:53.742Z,61.59
2023-04-04T23:13:20.838Z,62.12
2023-04-04T23:15:47.608Z,61.69
2023-04-04T23:18:14.442Z,61.68
2023-04-04T23:20:44.807Z,61.51
2023-04-04T23:23:13.937Z,62.15
2023-04-04T23:25:40.609Z,61.52
2023-04-04T23:28:09.940Z,61.98
2023-04-04T23:30:36.905Z,61.74
2023-04-04T23:33:03.947Z,62.08
2023-04-04T23:35:33.178Z,62.67
2023-04-04T23:38:02.341Z,62.81
2023-04-04T23:40:29.042Z,62.90
2023-04-04T23:42:55.898Z,63.17
2023-04-04T23:45:26.307Z,63.07
2023-04-04T23:47:53.728Z,63.99
2023-04-04T23:50:20.541Z,63.41
2023-04-04T23:52:49.440Z,63.75
2023-04-04T23:55:17.193Z,64.03
2023-04-04T23:57:47.124Z,64.27
